Saint-Andre-Avellin, Canada
Current Conditions -  °F | °C
As of 1:00 PM on Thursday 30 Oct 2014 (Local Time) from CYND Reporting Station
Broken Clouds Broken Clouds  
Wind Chill: 38°   Ceiling: 3800
Heat Index: 43°   Visibility: 15mi
Dew Point: 32°   Wind: 8mph
Humidity: 66%   Direction: 290°WNW
Pressure: 30"   Gusts: NA
Location:  45.72°N, 75.05°W
Report Text: CYND 301700Z 29007KT 260V320 15SM BKN038 06/M00 A3000 RMK SC7 SLP162
Loading
Personal Weather Stations






























Interactive Weather Map
Tropical Storm Tracking
New forecast layout! Learn more

10-Day Weather Forecast

Advertisements
Track Severe Weather on mobile